TimeEST,TemperatureF,Dew PointF,Humidity,Sea Level PressureIn,VisibilityMPH,Wind Direction,Wind SpeedMPH,Gust SpeedMPH,PrecipitationIn,Events,Conditions,WindDirDegrees,DateUTC
12:15 AM,49.5,42.8,78,29.95,10.0,SW,3.5,-,N/A,,Clear,220,2013-02-12 05:15:00
12:35 AM,45.7,42.4,88,29.95,10.0,Calm,Calm,-,N/A,,Clear,0,2013-02-12 05:35:00
12:55 AM,45.0,41.9,89,29.97,10.0,Calm,Calm,-,N/A,,Clear,0,2013-02-12 05:55:00
1:15 AM,45.5,39.2,79,29.96,10.0,West,4.6,-,N/A,,Clear,270,2013-02-12 06:15:00
1:35 AM,50.0,32.0,50,29.97,10.0,West,5.8,-,N/A,,Clear,280,2013-02-12 06:35:00
1:55 AM,48.6,32.2,53,29.97,10.0,WSW,5.8,-,N/A,,Clear,250,2013-02-12 06:55:00
2:15 AM,49.6,31.8,50,29.98,10.0,WSW,4.6,-,N/A,,Clear,250,2013-02-12 07:15:00
2:35 AM,47.7,32.0,55,30.00,10.0,WSW,5.8,-,N/A,,Clear,250,2013-02-12 07:35:00
2:55 AM,47.3,31.6,55,29.99,10.0,WSW,3.5,-,N/A,,Clear,250,2013-02-12 07:55:00
3:15 AM,45.7,31.3,57,30.01,10.0,Calm,Calm,-,N/A,,Clear,0,2013-02-12 08:15:00
3:35 AM,46.4,29.7,52,30.00,10.0,SW,4.6,-,N/A,,Clear,230,2013-02-12 08:35:00
3:55 AM,44.6,28.2,53,30.01,10.0,SW,3.5,-,N/A,,Clear,230,2013-02-12 08:55:00
4:15 AM,45.1,25.3,46,30.01,10.0,West,8.1,-,N/A,,Clear,260,2013-02-12 09:15:00
4:35 AM,45.3,25.2,45,30.01,10.0,West,5.8,-,N/A,,Clear,280,2013-02-12 09:35:00
4:55 AM,44.1,25.7,49,30.02,10.0,West,4.6,-,N/A,,Clear,280,2013-02-12 09:55:00
5:15 AM,43.5,26.2,51,30.03,10.0,West,4.6,-,N/A,,Clear,270,2013-02-12 10:15:00
5:35 AM,41.0,27.0,57,30.03,10.0,Calm,Calm,-,N/A,,Clear,0,2013-02-12 10:35:00
5:55 AM,41.7,26.8,55,30.02,10.0,Calm,Calm,-,N/A,,Clear,0,2013-02-12 10:55:00
6:15 AM,40.8,28.2,61,30.03,10.0,West,4.6,-,N/A,,Clear,260,2013-02-12 11:15:00
6:35 AM,37.8,29.7,73,30.03,10.0,NW,3.5,-,N/A,,Clear,310,2013-02-12 11:35:00
6:55 AM,36.0,29.8,78,30.04,10.0,Calm,Calm,-,N/A,,Clear,0,2013-02-12 11:55:00
7:15 AM,38.3,28.6,68,30.04,10.0,Calm,Calm,-,N/A,,Clear,0,2013-02-12 12:15:00
7:35 AM,34.3,30.0,84,30.04,10.0,Calm,Calm,-,N/A,,Clear,0,2013-02-12 12:35:00
7:55 AM,36.9,31.5,81,30.05,10.0,SW,3.5,-,N/A,,Clear,230,2013-02-12 12:55:00
8:15 AM,39.6,30.6,70,30.06,10.0,Calm,Calm,-,N/A,,Clear,0,2013-02-12 13:15:00
8:35 AM,46.4,28.8,50,30.06,10.0,Calm,Calm,-,N/A,,Clear,0,2013-02-12 13:35:00
8:55 AM,47.7,28.9,48,30.07,10.0,WSW,4.6,-,N/A,,Clear,250,2013-02-12 13:55:00
9:15 AM,48.6,27.9,45,30.06,10.0,WNW,3.5,-,N/A,,Clear,290,2013-02-12 14:15:00
9:35 AM,49.1,27.3,43,30.07,10.0,WNW,4.6,-,N/A,,Clear,290,2013-02-12 14:35:00
9:55 AM,50.7,27.9,41,30.07,10.0,Calm,Calm,-,N/A,,Clear,0,2013-02-12 14:55:00
10:15 AM,50.7,26.1,38,30.08,10.0,West,4.6,-,N/A,,Clear,260,2013-02-12 15:15:00
10:35 AM,52.5,27.5,38,30.08,10.0,West,6.9,-,N/A,,Clear,260,2013-02-12 15:35:00
10:55 AM,53.1,25.5,34,30.08,10.0,SSW,3.5,-,N/A,,Clear,210,2013-02-12 15:55:00
11:15 AM,54.7,25.5,32,30.08,10.0,West,6.9,-,N/A,,Clear,270,2013-02-12 16:15:00
11:35 AM,55.6,24.6,30,30.07,10.0,Calm,Calm,-,N/A,,Clear,0,2013-02-12 16:35:00
11:55 AM,56.3,24.3,29,30.06,10.0,Calm,Calm,-,N/A,,Clear,0,2013-02-12 16:55:00
12:15 PM,56.5,23.9,28,30.03,10.0,NW,4.6,-,N/A,,Clear,310,2013-02-12 17:15:00
12:35 PM,57.4,23.0,27,30.00,10.0,NNE,5.8,-,N/A,,Clear,30,2013-02-12 17:35:00
12:55 PM,57.7,23.7,27,29.99,10.0,ENE,3.5,-,N/A,,Clear,70,2013-02-12 17:55:00
1:15 PM,58.3,25.0,28,30.00,10.0,Calm,Calm,-,N/A,,Clear,0,2013-02-12 18:15:00
1:35 PM,58.5,24.6,27,30.00,10.0,South,6.9,-,N/A,,Clear,190,2013-02-12 18:35:00
1:55 PM,58.3,23.5,26,30.00,10.0,WSW,9.2,-,N/A,,Clear,240,2013-02-12 18:55:00
2:15 PM,58.5,23.9,26,30.00,10.0,SW,6.9,-,N/A,,Clear,230,2013-02-12 19:15:00
2:35 PM,59.4,22.5,24,30.00,10.0,West,6.9,-,N/A,,Clear,270,2013-02-12 19:35:00
2:55 PM,59.4,23.0,25,29.98,10.0,WSW,8.1,-,N/A,,Clear,250,2013-02-12 19:55:00
3:15 PM,58.6,21.7,24,29.99,10.0,West,9.2,-,N/A,,Clear,260,2013-02-12 20:15:00
3:35 PM,58.3,21.6,24,29.97,10.0,West,3.5,-,N/A,,Clear,260,2013-02-12 20:35:00
3:55 PM,57.9,23.7,27,29.98,10.0,West,6.9,-,N/A,,Clear,260,2013-02-12 20:55:00
4:15 PM,57.2,23.2,27,29.99,10.0,WSW,4.6,-,N/A,,Clear,240,2013-02-12 21:15:00
4:35 PM,56.5,24.3,29,30.00,10.0,WSW,4.6,-,N/A,,Clear,250,2013-02-12 21:35:00
4:55 PM,55.9,24.8,30,29.99,10.0,SW,3.5,-,N/A,,Clear,230,2013-02-12 21:55:00
5:15 PM,55.2,25.0,31,29.98,10.0,Calm,Calm,-,N/A,,Clear,0,2013-02-12 22:15:00
5:35 PM,54.7,25.5,32,29.96,10.0,Calm,Calm,-,N/A,,Clear,0,2013-02-12 22:35:00
5:55 PM,53.1,27.7,38,29.98,10.0,SW,3.5,-,N/A,,Clear,230,2013-02-12 22:55:00
6:15 PM,50.7,30.0,45,29.97,10.0,Calm,Calm,-,N/A,,Clear,0,2013-02-12 23:15:00
6:35 PM,51.3,28.8,42,29.97,10.0,Calm,Calm,-,N/A,,Scattered Clouds,0,2013-02-12 23:35:00
6:55 PM,51.1,28.4,42,29.96,10.0,Calm,Calm,-,N/A,,Mostly Cloudy,0,2013-02-12 23:55:00
7:15 PM,49.5,31.8,51,29.95,7.0,Calm,Calm,-,N/A,,Overcast,0,2013-02-13 00:15:00
7:35 PM,48.6,34.3,58,29.94,10.0,Calm,Calm,-,N/A,,Mostly Cloudy,0,2013-02-13 00:35:00
7:55 PM,46.6,33.6,61,29.93,10.0,Calm,Calm,-,N/A,,Mostly Cloudy,0,2013-02-13 00:55:00
8:15 PM,47.7,34.9,61,29.94,10.0,Calm,Calm,-,N/A,,Overcast,0,2013-02-13 01:15:00
8:35 PM,48.2,34.2,58,29.96,10.0,Calm,Calm,-,N/A,,Overcast,0,2013-02-13 01:35:00
8:55 PM,47.8,34.0,59,29.99,10.0,Calm,Calm,-,N/A,,Overcast,0,2013-02-13 01:55:00
9:15 PM,49.8,31.8,50,29.99,10.0,Calm,Calm,-,N/A,,Overcast,0,2013-02-13 02:15:00
9:35 PM,50.0,32.2,50,30.00,10.0,Calm,Calm,-,N/A,,Overcast,0,2013-02-13 02:35:00
9:55 PM,50.5,31.1,47,29.99,10.0,Calm,Calm,-,N/A,,Overcast,0,2013-02-13 02:55:00
10:15 PM,52.9,30.4,42,30.00,10.0,SW,6.9,-,N/A,Rain,Light Rain,230,2013-02-13 03:15:00
10:35 PM,51.4,36.0,56,29.99,10.0,SW,11.5,18.4,N/A,Rain,Rain,220,2013-02-13 03:35:00
10:55 PM,48.9,37.9,66,29.98,10.0,West,4.6,-,N/A,Rain,Light Rain,270,2013-02-13 03:55:00
11:15 PM,50.4,35.4,57,29.98,10.0,WSW,4.6,-,N/A,Rain,Light Rain,250,2013-02-13 04:15:00
11:35 PM,48.0,38.5,70,29.98,10.0,SW,8.1,-,0.01,Rain,Rain,220,2013-02-13 04:35:00
11:55 PM,45.3,41.2,85,29.98,10.0,Calm,Calm,-,0.01,Rain,Light Rain,0,2013-02-13 04:55:00